Price Town, United Kingdom
Current Conditions -  °F | °C
As of 10:50 AM on Tuesday 21 Oct 2014 (Local Time) from EGDX Reporting Station
Rain Showers Rain Showers  
Wind Chill: 54°   Ceiling: Unl
Heat Index: 54°   Visibility: 6mi
Dew Point: 43°   Wind: 26mph
Humidity: 67%   Direction: 290°WNW
Pressure: 29.8"   Gusts: 43mph
Location:  51.62°N, 3.54°W
Report Text: EGDX 210950Z 29023G37KT 9999 VCSH SCT033 12/06 Q1009 BLU
Loading
Personal Weather Stations






























Interactive Weather Map
Tropical Storm Tracking
New forecast layout! Learn more

10-Day Weather Forecast

Advertisements
Track Severe Weather on mobile